Time;durP1;ratioP1;P1;durP2;ratioP2;P2;SDS_P1;SDS_P2;PMS_P1;PMS_P2;Temp;Humidity;BMP_temperature;BMP_pressure;BME280_temperature;BME280_humidity;BME280_pressure;Samples;Min_cycle;Max_cycle;Signal;HPM_P1;HPM_P2
2023/05/12 00:01:01;;;;;;;10.70;6.30;;;;;;;11.08;42.39;100530.00;105756;1255;74941;-76
2023/05/12 00:03:28;;;;;;;9.80;6.30;;;;;;;11.08;42.76;100534.26;105821;1259;72660;-77
2023/05/12 00:05:55;;;;;;;9.70;6.20;;;;;;;11.07;42.92;100528.65;105942;1258;76519;-76
2023/05/12 00:08:22;;;;;;;11.50;5.90;;;;;;;11.06;43.03;100530.11;105907;1257;62351;-79
2023/05/12 00:10:50;;;;;;;8.50;5.80;;;;;;;11.06;43.23;100534.27;105772;1254;62334;-75
2023/05/12 00:13:17;;;;;;;8.60;5.60;;;;;;;11.05;43.78;100530.11;105709;1259;74345;-75
2023/05/12 00:15:44;;;;;;;8.70;6.10;;;;;;;11.06;43.53;100528.78;105818;1254;71699;-75
2023/05/12 00:18:11;;;;;;;9.90;6.10;;;;;;;11.08;43.43;100531.06;105653;1260;73605;-78
2023/05/12 00:20:38;;;;;;;6.70;5.00;;;;;;;11.12;43.61;100531.36;105825;1254;61050;-76
2023/05/12 00:23:05;;;;;;;9.50;5.80;;;;;;;11.16;43.50;100528.27;105847;1255;61038;-78
2023/05/12 00:25:32;;;;;;;9.30;5.70;;;;;;;11.19;43.60;100531.14;105963;1254;73563;-77
2023/05/12 00:27:59;;;;;;;7.90;5.70;;;;;;;11.19;43.38;100529.88;105894;1255;68671;-75
2023/05/12 00:30:26;;;;;;;6.50;5.70;;;;;;;11.18;43.62;100535.54;105699;1255;74844;-76
2023/05/12 00:32:53;;;;;;;8.30;6.40;;;;;;;11.17;43.77;100534.58;105650;1254;60013;-73
2023/05/12 00:35:20;;;;;;;10.20;6.70;;;;;;;11.14;43.90;100539.40;105734;1256;60943;-75
2023/05/12 00:37:47;;;;;;;9.10;5.90;;;;;;;11.10;44.23;100540.53;105694;1254;75172;-74
2023/05/12 00:40:14;;;;;;;7.20;5.20;;;;;;;11.06;44.37;100543.15;105771;1255;72357;-74
2023/05/12 00:42:42;;;;;;;7.60;5.80;;;;;;;11.02;44.67;100547.57;105661;1260;72411;-76
2023/05/12 00:45:09;;;;;;;7.60;5.70;;;;;;;10.98;44.64;100549.38;105795;1257;61306;-73
2023/05/12 00:47:36;;;;;;;9.70;5.90;;;;;;;10.94;44.36;100546.81;105832;1261;59699;-76
2023/05/12 00:50:03;;;;;;;7.20;5.50;;;;;;;10.89;44.11;100545.80;105945;1260;73608;-74
2023/05/12 00:52:30;;;;;;;11.60;5.50;;;;;;;10.85;44.41;100546.46;108004;1254;72218;-75
2023/05/12 00:54:58;;;;;;;7.20;5.80;;;;;;;10.80;44.43;100548.84;107904;1254;74644;-75
2023/05/12 00:57:26;;;;;;;9.10;5.90;;;;;;;10.75;44.57;100551.08;106068;1263;62234;-76
2023/05/12 00:59:54;;;;;;;6.10;5.50;;;;;;;10.69;44.52;100555.01;105538;1254;63046;-75
2023/05/12 01:02:21;;;;;;;9.90;6.10;;;;;;;10.65;44.58;100556.48;105637;1254;75322;-74
2023/05/12 01:04:50;;;;;;;7.60;5.60;;;;;;;10.60;44.90;100553.73;105737;1254;73009;-75
2023/05/12 01:07:19;;;;;;;8.90;6.10;;;;;;;10.56;44.93;100553.48;105624;1256;72896;-75
2023/05/12 01:09:47;;;;;;;6.90;5.20;;;;;;;10.51;45.16;100554.52;105741;1258;59852;-74
2023/05/12 01:12:14;;;;;;;8.20;5.50;;;;;;;10.41;45.31;100552.91;105704;1260;60389;-76
2023/05/12 01:14:41;;;;;;;8.90;5.80;;;;;;;10.33;45.42;100555.61;105684;1260;75430;-75
2023/05/12 01:17:11;;;;;;;10.10;5.60;;;;;;;10.25;45.68;100554.96;105852;1254;71398;-76
2023/05/12 01:19:48;;;;;;;7.10;5.80;;;;;;;10.16;45.79;100556.73;105952;1254;72824;-76
2023/05/12 01:22:15;;;;;;;8.30;5.60;;;;;;;10.07;46.05;100557.71;105877;1258;61203;-76
2023/05/12 01:24:51;;;;;;;7.10;5.70;;;;;;;9.98;46.46;100558.34;105817;1259;61294;-77
2023/05/12 01:27:18;;;;;;;7.90;6.40;;;;;;;9.90;46.73;100558.77;105820;1260;75285;-75
2023/05/12 01:29:46;;;;;;;9.80;6.00;;;;;;;9.84;46.97;100554.38;105596;1254;72398;-74
2023/05/12 01:32:14;;;;;;;9.10;6.40;;;;;;;9.79;47.22;100556.96;105847;1256;74763;-77
2023/05/12 01:34:42;;;;;;;9.10;5.80;;;;;;;9.76;46.95;100557.83;105566;1257;60355;-76
2023/05/12 01:37:09;;;;;;;8.20;6.30;;;;;;;9.72;47.12;100560.48;105719;1253;62322;-77
2023/05/12 01:39:36;;;;;;;9.10;5.90;;;;;;;9.67;47.35;100557.52;105959;1254;72773;-74
2023/05/12 01:42:04;;;;;;;9.40;5.80;;;;;;;9.65;47.22;100556.52;105962;1257;71731;-77
2023/05/12 01:44:31;;;;;;;10.80;5.70;;;;;;;9.63;47.54;100556.30;105725;1255;74811;-77
2023/05/12 01:46:58;;;;;;;7.90;5.70;;;;;;;9.63;47.53;100553.89;105821;1257;62517;-77
2023/05/12 01:49:25;;;;;;;8.70;6.20;;;;;;;9.62;47.68;100554.33;105792;1258;62110;-75
2023/05/12 01:51:52;;;;;;;8.60;6.10;;;;;;;9.61;47.86;100550.02;105894;1260;74902;-75
2023/05/12 01:54:24;;;;;;;9.80;6.70;;;;;;;9.62;47.85;100556.66;105713;1254;72440;-74
2023/05/12 01:56:51;;;;;;;9.70;6.30;;;;;;;9.61;47.91;100556.38;105734;1257;73074;-76
2023/05/12 01:59:18;;;;;;;7.80;6.00;;;;;;;9.63;47.82;100554.52;105800;1260;62324;-76
2023/05/12 02:01:45;;;;;;;9.90;6.00;;;;;;;9.67;47.87;100559.15;105708;1254;61056;-74
2023/05/12 02:04:13;;;;;;;8.80;6.10;;;;;;;9.71;48.21;100557.61;105670;1254;74062;-76
2023/05/12 02:06:41;;;;;;;8.20;6.30;;;;;;;9.71;48.02;100557.02;105851;1260;72952;-74
2023/05/12 02:09:08;;;;;;;7.70;5.60;;;;;;;9.73;48.33;100559.83;105864;1257;73209;-75
2023/05/12 02:11:35;;;;;;;9.80;6.30;;;;;;;9.75;48.13;100562.69;105638;1260;61118;-75
2023/05/12 02:14:02;;;;;;;9.40;5.90;;;;;;;9.73;48.42;100564.84;105925;1261;61450;-75
2023/05/12 02:16:29;;;;;;;9.10;5.40;;;;;;;9.69;48.43;100563.23;105781;1256;73286;-76
2023/05/12 02:18:56;;;;;;;11.80;5.40;;;;;;;9.64;48.65;100564.77;105639;1254;72149;-75
2023/05/12 02:21:23;;;;;;;8.90;6.20;;;;;;;9.58;48.92;100564.39;105691;1254;74599;-74
2023/05/12 02:23:50;;;;;;;10.60;6.20;;;;;;;9.52;48.94;100559.98;105578;1258;60163;-74
2023/05/12 02:26:18;;;;;;;10.10;5.80;;;;;;;9.48;49.45;100562.46;105730;1254;60072;-74
2023/05/12 02:28:45;;;;;;;6.90;6.10;;;;;;;9.44;49.70;100560.88;105683;1260;75288;-73
2023/05/12 02:31:12;;;;;;;9.30;6.50;;;;;;;9.41;49.59;100560.66;105766;1260;71606;-74
2023/05/12 02:33:38;;;;;;;8.80;6.00;;;;;;;9.41;49.39;100563.11;105839;1259;73561;-74
2023/05/12 02:36:06;;;;;;;10.70;6.50;;;;;;;9.45;49.59;100563.67;105777;1257;62364;-74
2023/05/12 02:38:32;;;;;;;8.20;5.80;;;;;;;9.49;49.64;100561.88;105820;1254;61398;-76
2023/05/12 02:41:00;;;;;;;8.80;6.20;;;;;;;9.53;49.36;100559.40;105862;1253;73461;-75
2023/05/12 02:43:27;;;;;;;11.30;6.50;;;;;;;9.56;49.50;100564.77;105636;1253;72223;-74
2023/05/12 02:45:54;;;;;;;11.10;6.30;;;;;;;9.58;49.47;100564.95;105765;1254;73565;-74
2023/05/12 02:48:21;;;;;;;8.90;5.80;;;;;;;9.59;49.32;100564.13;105786;1260;60540;-73
2023/05/12 02:50:48;;;;;;;10.50;6.20;;;;;;;9.61;49.32;100565.36;105808;1253;60130;-76
2023/05/12 02:53:14;;;;;;;9.70;6.40;;;;;;;9.63;49.18;100564.79;105587;1253;74874;-76
2023/05/12 02:55:41;;;;;;;10.20;6.60;;;;;;;9.63;49.05;100566.02;105702;1254;72158;-76
2023/05/12 02:58:09;;;;;;;15.20;7.30;;;;;;;9.62;49.30;100570.36;105535;1256;73720;-77
2023/05/12 03:00:36;;;;;;;10.50;7.00;;;;;;;9.61;49.38;100569.27;105787;1257;62755;-77
2023/05/12 03:03:02;;;;;;;8.10;6.40;;;;;;;9.59;49.63;100570.86;105655;1254;59974;-77
2023/05/12 03:05:30;;;;;;;12.10;6.60;;;;;;;9.60;49.66;100573.42;105803;1259;75635;-76
2023/05/12 03:07:57;;;;;;;12.50;6.20;;;;;;;9.60;49.81;100572.55;105810;1253;72114;-77
2023/05/12 03:10:24;;;;;;;11.20;6.20;;;;;;;9.58;50.08;100572.02;105543;1260;73681;-74
2023/05/12 03:12:51;;;;;;;10.80;6.30;;;;;;;9.57;50.01;100573.73;105776;1254;62519;-75
2023/05/12 03:15:19;;;;;;;11.30;7.20;;;;;;;9.56;50.17;100573.07;105742;1260;62301;-74
2023/05/12 03:17:45;;;;;;;12.40;6.80;;;;;;;9.54;50.37;100573.94;105702;1253;75789;-72
2023/05/12 03:20:13;;;;;;;11.40;6.70;;;;;;;9.53;50.25;100577.66;105899;1254;70686;-75
2023/05/12 03:22:41;;;;;;;13.10;7.10;;;;;;;9.53;50.70;100582.43;105799;1256;74802;-74
2023/05/12 03:25:09;;;;;;;15.50;7.30;;;;;;;9.52;51.09;100584.25;105773;1254;62571;-74
2023/05/12 03:27:36;;;;;;;12.10;6.30;;;;;;;9.52;51.06;100584.09;106008;1259;61193;-74
2023/05/12 03:30:06;;;;;;;13.20;6.70;;;;;;;9.53;51.00;100584.30;105818;1253;73952;-74
2023/05/12 03:32:37;;;;;;;12.80;7.20;;;;;;;9.57;50.98;100586.98;105859;1251;72548;-77
2023/05/12 03:35:07;;;;;;;10.50;6.60;;;;;;;9.61;51.03;100582.88;106153;1255;74658;-72
2023/05/12 03:37:34;;;;;;;10.20;6.60;;;;;;;9.68;50.91;100586.98;105823;1258;61211;-74
2023/05/12 03:40:01;;;;;;;10.30;7.00;;;;;;;9.75;51.03;100588.52;105751;1253;60552;-76
2023/05/12 03:42:29;;;;;;;8.70;6.30;;;;;;;9.80;51.20;100589.30;105845;1255;75816;-74
2023/05/12 03:44:55;;;;;;;11.70;6.70;;;;;;;9.86;51.00;100586.91;105932;1259;70345;-75
2023/05/12 03:47:22;;;;;;;15.40;7.30;;;;;;;9.94;51.03;100591.13;105899;1257;74603;-75
2023/05/12 03:49:49;;;;;;;13.30;7.50;;;;;;;10.00;51.04;100591.77;105909;1253;61004;-75
2023/05/12 03:52:16;;;;;;;13.60;6.80;;;;;;;10.11;51.33;100596.88;106210;1257;60047;-73
2023/05/12 03:54:43;;;;;;;12.60;7.00;;;;;;;10.17;51.09;100592.76;105863;1254;73197;-75
2023/05/12 03:57:11;;;;;;;9.80;6.50;;;;;;;10.25;51.18;100601.90;106064;1257;71214;-75
2023/05/12 03:59:38;;;;;;;9.10;6.50;;;;;;;10.31;50.99;100597.67;105887;1260;73391;-73
2023/05/12 04:02:06;;;;;;;11.80;6.30;;;;;;;10.35;51.15;100599.77;105881;1254;61220;-75
2023/05/12 04:04:33;;;;;;;13.20;6.80;;;;;;;10.40;51.43;100597.47;105790;1254;60625;-75
2023/05/12 04:07:00;;;;;;;12.90;6.70;;;;;;;10.48;51.15;100598.00;105859;1254;72518;-73
2023/05/12 04:09:30;;;;;;;14.20;7.30;;;;;;;10.57;51.53;100597.64;105781;1260;69032;-75
2023/05/12 04:11:57;;;;;;;8.80;6.30;;;;;;;10.70;51.48;100597.13;105887;1253;71061;-74
2023/05/12 04:14:24;;;;;;;11.60;6.60;;;;;;;10.84;51.84;100597.72;105890;1254;62030;-74
2023/05/12 04:17:05;;;;;;;11.60;6.80;;;;;;;11.03;51.91;100598.73;105835;1254;61130;-75
2023/05/12 04:19:32;;;;;;;13.40;7.10;;;;;;;11.17;52.09;100598.60;105913;1254;75061;-76
2023/05/12 04:21:59;;;;;;;12.80;7.00;;;;;;;11.34;51.96;100600.59;105757;1254;71098;-75
2023/05/12 04:24:26;;;;;;;10.60;6.40;;;;;;;11.53;51.86;100600.73;105676;1256;72450;-75
2023/05/12 04:26:53;;;;;;;9.30;6.40;;;;;;;11.71;52.09;100600.90;105641;1260;62393;-76
2023/05/12 04:29:20;;;;;;;11.00;6.50;;;;;;;11.89;52.32;100599.60;105793;1253;60482;-75
2023/05/12 04:31:47;;;;;;;11.70;7.20;;;;;;;12.10;52.30;100601.22;105792;1255;74956;-75
2023/05/12 04:34:14;;;;;;;8.40;6.40;;;;;;;12.30;52.36;100601.29;105825;1254;72120;-75
2023/05/12 04:36:41;;;;;;;9.80;6.10;;;;;;;12.46;52.82;100605.17;105763;1253;71507;-73
2023/05/12 04:39:08;;;;;;;15.30;6.80;;;;;;;12.58;53.35;100606.19;106214;1254;62385;-75
2023/05/12 04:41:35;;;;;;;9.60;6.60;;;;;;;12.67;53.36;100608.10;106139;1255;62325;-78
2023/05/12 04:44:02;;;;;;;8.30;6.50;;;;;;;12.76;53.26;100609.33;105685;1255;73165;-76
2023/05/12 04:46:29;;;;;;;10.00;6.70;;;;;;;12.87;53.14;100610.84;105610;1260;73126;-74
2023/05/12 04:48:56;;;;;;;13.20;6.60;;;;;;;12.97;52.95;100612.04;105838;1256;75157;-76
2023/05/12 04:51:23;;;;;;;10.90;6.90;;;;;;;13.07;52.83;100610.69;105907;1259;61145;-76
2023/05/12 04:53:50;;;;;;;13.00;7.80;;;;;;;13.17;52.62;100611.20;105845;1258;61134;-76
2023/05/12 04:56:17;;;;;;;11.40;7.20;;;;;;;13.28;52.60;100610.08;105658;1254;75630;-74
2023/05/12 04:58:45;;;;;;;11.50;7.90;;;;;;;13.42;52.39;100610.55;105598;1253;72596;-74
2023/05/12 05:01:12;;;;;;;11.10;7.60;;;;;;;13.58;52.08;100610.60;105803;1254;73052;-75
2023/05/12 05:03:39;;;;;;;13.40;7.70;;;;;;;13.71;51.75;100608.12;105669;1254;62363;-75
2023/05/12 05:06:07;;;;;;;10.50;6.90;;;;;;;13.78;51.49;100607.32;105578;1254;61731;-71
2023/05/12 05:08:34;;;;;;;10.30;6.60;;;;;;;13.82;51.49;100604.01;105543;1257;74871;-73
2023/05/12 05:11:02;;;;;;;8.60;6.30;;;;;;;13.88;51.43;100608.38;105704;1256;72434;-74
2023/05/12 05:13:30;;;;;;;11.70;7.30;;;;;;;13.95;51.48;100609.21;105792;1254;74618;-78
2023/05/12 05:15:57;;;;;;;10.90;7.00;;;;;;;14.02;51.48;100610.38;105651;1257;62445;-73
2023/05/12 05:18:24;;;;;;;9.40;6.50;;;;;;;14.08;51.33;100613.70;105614;1254;62498;-72
2023/05/12 05:20:52;;;;;;;7.70;6.50;;;;;;;14.13;51.28;100610.81;105785;1254;73032;-68
2023/05/12 05:23:23;;;;;;;11.00;6.10;;;;;;;14.21;50.98;100614.54;105570;1254;72267;-72
2023/05/12 05:25:50;;;;;;;11.70;6.40;;;;;;;14.28;50.95;100615.90;105910;1256;74862;-71
2023/05/12 05:28:17;;;;;;;7.80;6.60;;;;;;;14.34;50.87;100620.06;105699;1258;60461;-69
2023/05/12 05:30:44;;;;;;;13.30;6.40;;;;;;;14.40;50.62;100620.45;105416;1256;62499;-70
2023/05/12 05:33:11;;;;;;;8.20;5.40;;;;;;;14.46;50.54;100615.18;105603;1260;72544;-73
2023/05/12 05:35:39;;;;;;;10.10;6.80;;;;;;;14.53;50.59;100616.82;105673;1260;72704;-72
2023/05/12 05:38:05;;;;;;;9.20;6.10;;;;;;;14.63;50.46;100621.13;105594;1260;71923;-73
2023/05/12 05:40:32;;;;;;;11.10;6.20;;;;;;;14.71;50.39;100617.52;105539;1261;60631;-73
2023/05/12 05:43:17;;;;;;;8.60;6.30;;;;;;;14.81;50.17;100621.41;105596;1258;60332;-71
2023/05/12 05:45:44;;;;;;;9.60;6.30;;;;;;;14.89;50.08;100621.55;105583;1260;75892;-72
2023/05/12 05:48:11;;;;;;;6.40;5.10;;;;;;;14.98;50.06;100624.11;105466;1260;72666;-72
2023/05/12 05:50:38;;;;;;;7.50;5.50;;;;;;;15.06;49.94;100623.20;105722;1256;71402;-74
2023/05/12 05:53:05;;;;;;;9.20;6.00;;;;;;;15.15;49.80;100624.73;105647;1256;60640;-71
2023/05/12 05:55:32;;;;;;;8.10;5.50;;;;;;;15.24;49.45;100625.06;105852;1260;60416;-73
2023/05/12 05:57:59;;;;;;;9.90;6.10;;;;;;;15.33;49.16;100624.23;105715;1258;74419;-74
2023/05/12 06:00:26;;;;;;;11.00;6.20;;;;;;;15.41;49.26;100623.48;105821;1258;71331;-73
2023/05/12 06:02:54;;;;;;;9.00;6.30;;;;;;;15.49;48.78;100626.48;105829;1254;74344;-73
2023/05/12 06:05:21;;;;;;;8.00;5.60;;;;;;;15.54;48.76;100626.39;105740;1257;62652;-73
2023/05/12 06:07:48;;;;;;;9.50;6.00;;;;;;;15.60;48.58;100629.13;105671;1258;60256;-72
2023/05/12 06:10:15;;;;;;;6.60;4.70;;;;;;;15.67;48.45;100627.74;105777;1253;76332;-72
2023/05/12 06:12:44;;;;;;;7.90;5.50;;;;;;;15.75;48.33;100630.44;105832;1253;72773;-74
2023/05/12 06:15:11;;;;;;;6.20;5.00;;;;;;;15.81;48.06;100624.47;105681;1253;72702;-71
2023/05/12 06:17:38;;;;;;;17.70;5.50;;;;;;;15.86;47.95;100624.66;105676;1253;62334;-72
2023/05/12 06:20:06;;;;;;;11.80;6.20;;;;;;;15.87;47.97;100623.95;105928;1259;62225;-71
2023/05/12 06:22:33;;;;;;;6.70;5.10;;;;;;;15.93;47.91;100628.13;105945;1260;73419;-72
2023/05/12 06:25:00;;;;;;;7.10;5.00;;;;;;;16.00;47.79;100630.41;105849;1256;70966;-72
2023/05/12 06:27:27;;;;;;;6.30;4.60;;;;;;;16.06;47.60;100629.48;105628;1253;74544;-73
2023/05/12 06:29:54;;;;;;;9.00;4.80;;;;;;;16.11;47.50;100628.28;105565;1253;61085;-73
2023/05/12 06:32:21;;;;;;;7.00;4.70;;;;;;;16.19;47.24;100631.36;105706;1260;60438;-73
2023/05/12 06:34:48;;;;;;;6.40;4.30;;;;;;;16.23;47.03;100631.84;105821;1257;75520;-74
2023/05/12 06:37:15;;;;;;;11.40;5.40;;;;;;;16.30;46.90;100634.75;105715;1253;71981;-71
2023/05/12 06:39:42;;;;;;;10.10;5.90;;;;;;;16.36;46.70;100637.36;105589;1260;74792;-70
2023/05/12 06:42:10;;;;;;;6.60;5.30;;;;;;;16.40;46.86;100636.66;105841;1254;62120;-72
2023/05/12 06:44:40;;;;;;;6.80;4.50;;;;;;;16.45;46.74;100632.30;105911;1257;60997;-71
2023/05/12 06:47:08;;;;;;;9.80;5.20;;;;;;;16.52;47.07;100631.84;105943;1253;74026;-71
2023/05/12 06:49:36;;;;;;;7.00;5.10;;;;;;;16.60;47.31;100630.38;105822;1253;72167;-75
2023/05/12 06:52:05;;;;;;;8.00;6.10;;;;;;;16.63;47.03;100628.15;105783;1254;73720;-71
2023/05/12 06:54:32;;;;;;;9.00;4.80;;;;;;;16.66;47.16;100627.41;105944;1253;60530;-71
2023/05/12 06:56:59;;;;;;;8.60;4.90;;;;;;;16.72;46.86;100628.48;105892;1251;61370;-71
2023/05/12 06:59:26;;;;;;;6.50;5.00;;;;;;;16.79;46.90;100631.38;105800;1253;74830;-74
2023/05/12 07:01:53;;;;;;;7.70;4.90;;;;;;;16.86;46.79;100629.31;105797;1256;70861;-71
2023/05/12 07:04:20;;;;;;;5.90;4.10;;;;;;;16.88;46.67;100624.58;105808;1253;74206;-73
2023/05/12 07:06:47;;;;;;;6.40;4.00;;;;;;;16.93;46.62;100628.71;105882;1258;62610;-73
2023/05/12 07:09:14;;;;;;;6.30;3.60;;;;;;;16.98;46.11;100631.30;105778;1253;60496;-70
2023/05/12 07:11:40;;;;;;;5.80;3.40;;;;;;;17.03;45.78;100629.25;105794;1253;72908;-70
2023/05/12 07:14:07;;;;;;;8.40;3.90;;;;;;;17.09;45.77;100628.33;105640;1260;71405;-75
2023/05/12 07:16:35;;;;;;;4.20;3.80;;;;;;;17.15;45.66;100630.84;105877;1258;73654;-75
2023/05/12 07:19:02;;;;;;;5.20;3.90;;;;;;;17.20;45.60;100631.27;105681;1254;60527;-70
2023/05/12 07:21:29;;;;;;;7.30;3.90;;;;;;;17.26;45.16;100629.64;105772;1257;60380;-72
2023/05/12 07:23:56;;;;;;;4.30;3.10;;;;;;;17.32;44.87;100629.49;105704;1253;73241;-73
2023/05/12 07:26:23;;;;;;;5.20;3.30;;;;;;;17.37;44.60;100632.05;105879;1253;69783;-74
2023/05/12 07:28:50;;;;;;;4.20;2.80;;;;;;;17.41;44.41;100632.39;105889;1258;71835;-73
2023/05/12 07:31:16;;;;;;;5.60;3.20;;;;;;;17.46;43.55;100632.48;105836;1257;62888;-72
2023/05/12 07:33:43;;;;;;;3.90;3.10;;;;;;;17.50;43.43;100634.67;105857;1253;61059;-71
2023/05/12 07:36:10;;;;;;;5.70;3.00;;;;;;;17.54;43.68;100635.15;105756;1253;75790;-72
2023/05/12 07:38:37;;;;;;;4.00;3.10;;;;;;;17.54;43.85;100633.67;105770;1258;72225;-71
2023/05/12 07:41:04;;;;;;;6.90;3.10;;;;;;;17.56;43.49;100636.46;105705;1258;71073;-71
2023/05/12 07:43:30;;;;;;;2.90;2.60;;;;;;;17.59;43.18;100637.35;105852;1251;62498;-72
2023/05/12 07:45:59;;;;;;;5.30;3.30;;;;;;;17.63;42.48;100635.58;105928;1251;60568;-73
2023/05/12 07:48:26;;;;;;;6.40;2.90;;;;;;;17.66;41.87;100635.36;105837;1257;75743;-74
2023/05/12 07:50:53;;;;;;;5.00;3.20;;;;;;;17.70;42.02;100632.09;105761;1258;72307;-72
2023/05/12 07:53:20;;;;;;;4.20;3.10;;;;;;;17.75;42.14;100634.25;105706;1252;71945;-72
2023/05/12 07:55:47;;;;;;;6.70;3.50;;;;;;;17.83;41.94;100636.80;105850;1257;61568;-72
2023/05/12 07:58:14;;;;;;;5.80;3.30;;;;;;;17.87;42.18;100633.27;105832;1253;62109;-71
2023/05/12 08:00:41;;;;;;;4.10;3.70;;;;;;;17.92;42.21;100630.77;105688;1253;76173;-74
2023/05/12 08:03:08;;;;;;;4.80;2.90;;;;;;;17.99;42.14;100626.77;105720;1257;71568;-73
2023/05/12 08:05:35;;;;;;;5.20;2.60;;;;;;;18.04;42.36;100627.73;105754;1251;74830;-73
2023/05/12 08:08:02;;;;;;;3.40;3.00;;;;;;;18.13;42.47;100623.11;106253;1253;62211;-73
2023/05/12 08:10:31;;;;;;;3.50;2.90;;;;;;;18.22;42.56;100621.94;105734;1258;62169;-73
2023/05/12 08:12:58;;;;;;;5.30;3.50;;;;;;;18.33;42.45;100624.08;105771;1252;74898;-72
2023/05/12 08:15:25;;;;;;;6.10;3.10;;;;;;;18.46;41.86;100625.15;105743;1258;70988;-74
2023/05/12 08:17:51;;;;;;;5.60;2.80;;;;;;;18.55;41.25;100625.81;105830;1253;73605;-72
2023/05/12 08:20:18;;;;;;;2.90;2.60;;;;;;;18.63;40.94;100623.58;105861;1253;60473;-74
2023/05/12 08:22:46;;;;;;;3.60;3.00;;;;;;;18.74;40.82;100625.16;105688;1259;61836;-73
2023/05/12 08:25:13;;;;;;;5.00;3.00;;;;;;;18.83;40.66;100625.96;105892;1254;74648;-72
2023/05/12 08:27:40;;;;;;;4.80;3.00;;;;;;;18.93;40.19;100627.14;105636;1260;71457;-74
2023/05/12 08:30:08;;;;;;;3.10;2.50;;;;;;;19.01;40.03;100626.75;105843;1257;74251;-72
2023/05/12 08:32:35;;;;;;;5.20;3.00;;;;;;;19.11;39.22;100619.20;105792;1251;60513;-74
2023/05/12 08:35:02;;;;;;;4.00;2.90;;;;;;;19.21;38.75;100620.67;105681;1253;62853;-74
2023/05/12 08:37:30;;;;;;;5.40;3.40;;;;;;;19.33;38.11;100618.29;105821;1251;75697;-73
2023/05/12 08:40:00;;;;;;;3.60;2.60;;;;;;;19.50;37.43;100618.48;105603;1258;69502;-70
2023/05/12 08:42:36;;;;;;;5.60;3.00;;;;;;;19.67;37.10;100615.57;105818;1253;74822;-73
2023/05/12 08:45:03;;;;;;;3.70;2.60;;;;;;;19.81;37.79;100614.14;105634;1253;60975;-72
2023/05/12 08:47:32;;;;;;;3.90;2.70;;;;;;;19.92;37.97;100608.95;105805;1258;60601;-73
2023/05/12 08:50:00;;;;;;;4.80;3.40;;;;;;;20.06;38.01;100605.99;105797;1253;72803;-73
2023/05/12 08:52:32;;;;;;;7.00;3.30;;;;;;;20.22;38.02;100602.45;105793;1253;71292;-72
2023/05/12 08:54:59;;;;;;;4.10;3.30;;;;;;;20.41;37.58;100603.80;105903;1253;74597;-73
2023/05/12 08:57:28;;;;;;;5.00;3.10;;;;;;;20.52;37.75;100602.16;105760;1259;62472;-73
2023/05/12 08:59:56;;;;;;;3.80;3.30;;;;;;;20.70;37.88;100597.75;105787;1253;61388;-73
2023/05/12 09:02:23;;;;;;;5.20;3.10;;;;;;;21.00;37.59;100589.77;105729;1258;73916;-73
2023/05/12 09:04:50;;;;;;;4.10;3.20;;;;;;;21.31;36.26;100596.23;106018;1254;72277;-74
2023/05/12 09:07:18;;;;;;;5.10;2.90;;;;;;;21.56;35.36;100598.30;105831;1254;74505;-71
2023/05/12 09:09:46;;;;;;;5.40;3.30;;;;;;;21.78;34.97;100598.90;105783;1256;60435;-71
2023/05/12 09:12:15;;;;;;;3.40;3.00;;;;;;;21.95;34.63;100602.33;105823;1253;61153;-72
2023/05/12 09:14:44;;;;;;;4.30;2.80;;;;;;;22.13;34.61;100595.41;105826;1253;75505;-73
2023/05/12 09:17:11;;;;;;;6.40;3.00;;;;;;;22.45;34.54;100597.30;105718;1253;72573;-72
2023/05/12 09:19:38;;;;;;;5.30;3.10;;;;;;;22.96;34.04;100601.70;105827;1253;74677;-72
2023/05/12 09:22:05;;;;;;;3.20;2.90;;;;;;;23.52;33.64;100597.31;105679;1257;60954;-74
2023/05/12 09:24:38;;;;;;;2.90;2.70;;;;;;;24.17;32.69;100594.77;105767;1258;62599;-70
2023/05/12 09:27:05;;;;;;;6.00;3.20;;;;;;;24.78;31.98;100590.78;105884;1253;75884;-73
2023/05/12 09:29:33;;;;;;;3.60;2.80;;;;;;;25.29;31.34;100584.68;105821;1253;68752;-73
2023/05/12 09:32:10;;;;;;;4.40;2.80;;;;;;;25.89;30.77;100578.70;105976;1253;74573;-73
2023/05/12 09:34:39;;;;;;;3.30;2.90;;;;;;;26.47;30.07;100578.38;105890;1256;60459;-73
2023/05/12 09:37:07;;;;;;;4.00;3.40;;;;;;;26.92;29.52;100580.70;105861;1253;61108;-74
2023/05/12 09:39:35;;;;;;;3.30;2.90;;;;;;;27.33;29.09;100580.98;105841;1251;74747;-73
2023/05/12 09:42:02;;;;;;;3.20;2.70;;;;;;;27.65;28.26;100581.35;105671;1251;72337;-73
2023/05/12 09:44:30;;;;;;;3.20;2.90;;;;;;;27.79;28.33;100578.67;105823;1254;73142;-71
2023/05/12 09:47:05;;;;;;;4.90;3.10;;;;;;;28.19;28.29;100570.52;105857;1260;60490;-71
2023/05/12 09:49:32;;;;;;;4.60;2.90;;;;;;;28.73;27.87;100563.94;106070;1253;60377;-72
2023/05/12 09:52:00;;;;;;;5.20;3.10;;;;;;;29.27;27.48;100560.33;105691;1260;76349;-76
2023/05/12 09:54:29;;;;;;;4.10;3.30;;;;;;;29.81;26.76;100560.81;105744;1253;72060;-74
2023/05/12 09:57:01;;;;;;;3.90;2.70;;;;;;;30.28;26.46;100556.92;105835;1254;74763;-74
2023/05/12 09:59:32;;;;;;;3.80;2.90;;;;;;;30.64;26.35;100559.06;105925;1260;60593;-70
2023/05/12 10:02:00;;;;;;;3.20;2.80;;;;;;;30.80;26.04;100556.77;105799;1251;60868;-72
2023/05/12 10:04:38;;;;;;;3.60;3.00;;;;;;;30.63;25.65;100563.02;105877;1253;75048;-72
2023/05/12 10:07:07;;;;;;;4.70;2.90;;;;;;;30.13;25.46;100559.75;105810;1253;71951;-74
2023/05/12 10:09:34;;;;;;;3.90;2.70;;;;;;;29.68;25.96;100561.48;105991;1253;74237;-73
2023/05/12 10:12:01;;;;;;;4.00;2.80;;;;;;;29.59;26.10;100560.33;105667;1253;62329;-73
2023/05/12 10:14:28;;;;;;;4.70;2.60;;;;;;;29.81;25.79;100556.33;105820;1253;60789;-72
2023/05/12 10:16:55;;;;;;;5.40;3.40;;;;;;;30.21;25.54;100554.64;105859;1254;74701;-71
2023/05/12 10:19:22;;;;;;;3.00;2.80;;;;;;;30.68;25.09;100550.77;105800;1253;72622;-72
2023/05/12 10:21:49;;;;;;;4.60;2.90;;;;;;;31.23;24.91;100550.59;105623;1253;72790;-71
2023/05/12 10:24:16;;;;;;;2.90;2.60;;;;;;;31.79;24.22;100550.00;105884;1256;60557;-72
2023/05/12 10:26:43;;;;;;;2.80;2.50;;;;;;;32.15;23.89;100546.23;105451;1251;61025;-71
2023/05/12 10:29:11;;;;;;;3.80;3.20;;;;;;;32.38;23.61;100542.14;105834;1253;74282;-74
2023/05/12 10:31:38;;;;;;;3.30;2.50;;;;;;;32.54;23.55;100536.83;105749;1260;71430;-74
2023/05/12 10:34:05;;;;;;;4.70;2.80;;;;;;;32.66;23.57;100535.25;105867;1253;72062;-72
2023/05/12 10:36:46;;;;;;;3.60;3.00;;;;;;;32.53;23.77;100533.54;105929;1253;61721;-72
2023/05/12 10:39:14;;;;;;;3.20;2.90;;;;;;;32.43;23.87;100536.84;105959;1260;60478;-72
2023/05/12 10:41:41;;;;;;;4.70;2.80;;;;;;;32.36;23.99;100539.08;105747;1253;73185;-73
2023/05/12 10:44:11;;;;;;;5.50;3.00;;;;;;;32.15;23.94;100538.43;105919;1253;72328;-71
2023/05/12 10:46:38;;;;;;;3.20;2.90;;;;;;;31.63;23.93;100533.62;105740;1253;74958;-71
2023/05/12 10:49:04;;;;;;;4.80;3.40;;;;;;;30.94;24.42;100530.14;105675;1254;60636;-71
2023/05/12 10:51:33;;;;;;;4.00;2.90;;;;;;;30.33;24.86;100530.48;105792;1253;61242;-71
2023/05/12 10:54:02;;;;;;;4.50;2.90;;;;;;;29.87;24.77;100533.91;105567;1254;74530;-73
2023/05/12 10:56:30;;;;;;;5.10;2.70;;;;;;;29.41;25.18;100532.76;105484;1258;69842;-71
2023/05/12 10:59:11;;;;;;;4.30;3.10;;;;;;;28.97;25.47;100530.52;105776;1256;72484;-72
2023/05/12 11:01:40;;;;;;;5.40;2.80;;;;;;;28.50;26.03;100529.25;105803;1253;60630;-70
2023/05/12 11:04:15;;;;;;;3.20;2.90;;;;;;;28.11;26.08;100531.52;105683;1253;62354;-72
2023/05/12 11:06:42;;;;;;;4.40;3.20;;;;;;;27.82;26.36;100527.09;105836;1258;74181;-70
2023/05/12 11:09:11;;;;;;;3.50;2.90;;;;;;;27.91;26.60;100526.61;105812;1258;72402;-70
2023/05/12 11:11:39;;;;;;;3.60;2.90;;;;;;;28.36;26.56;100518.05;105772;1252;71458;-70
2023/05/12 11:14:06;;;;;;;6.80;2.90;;;;;;;29.12;26.33;100514.56;105712;1254;62160;-71
2023/05/12 11:16:33;;;;;;;5.80;3.00;;;;;;;29.99;25.36;100512.38;105586;1253;60458;-72
2023/05/12 11:22:23;;;;;;;3.80;2.80;;;;;;;31.28;24.20;100514.27;102459;1297;602883;-71